createdAt,value
2023-02-19T00:01:48.284Z,99408.59
2023-02-19T00:04:22.432Z,99420.78
2023-02-19T00:06:50.157Z,99415.47
2023-02-19T00:09:19.988Z,99403.78
2023-02-19T00:11:48.013Z,99413.06
2023-02-19T00:14:21.324Z,99414.41
2023-02-19T00:16:49.190Z,99420.19
2023-02-19T00:19:18.929Z,99426.13
2023-02-19T00:21:47.062Z,99422.94
2023-02-19T00:24:15.319Z,99428.50
2023-02-19T00:26:44.157Z,99431.47
2023-02-19T00:29:13.980Z,99427.41
2023-02-19T00:31:42.856Z,99434.41
2023-02-19T00:34:11.598Z,99415.38
2023-02-19T00:36:40.280Z,99411.47
2023-02-19T00:39:08.822Z,99416.97
2023-02-19T00:41:36.115Z,99427.66
2023-02-19T00:44:06.411Z,99432.25
2023-02-19T00:46:36.579Z,99429.69
2023-02-19T00:49:05.921Z,99427.44
2023-02-19T00:51:36.829Z,99444.88
2023-02-19T00:54:05.249Z,99438.53
2023-02-19T00:56:32.832Z,99439.13
2023-02-19T00:59:01.489Z,99439.47
2023-02-19T01:01:28.920Z,99441.78
2023-02-19T01:03:56.630Z,99432.84
2023-02-19T01:06:24.019Z,99444.34
2023-02-19T01:08:51.896Z,99423.78
2023-02-19T01:11:20.486Z,99435.53
2023-02-19T01:13:48.129Z,99436.31
2023-02-19T01:16:22.359Z,99436.97
2023-02-19T01:18:49.955Z,99420.28
2023-02-19T01:21:24.013Z,99423.47
2023-02-19T01:23:52.590Z,99413.47
2023-02-19T01:26:26.015Z,99417.31
2023-02-19T01:28:53.633Z,99428.69
2023-02-19T01:31:23.942Z,99435.47
2023-02-19T01:33:57.839Z,99449.50
2023-02-19T01:36:26.061Z,99450.59
2023-02-19T01:38:54.321Z,99445.91
2023-02-19T01:41:24.335Z,99445.03
2023-02-19T01:43:58.072Z,99442.06
2023-02-19T01:46:35.650Z,99440.00
2023-02-19T01:49:08.122Z,99441.94
2023-02-19T01:51:38.227Z,99438.88
2023-02-19T01:54:09.896Z,99434.88
2023-02-19T01:56:39.721Z,99428.38
2023-02-19T01:59:07.773Z,99436.78
2023-02-19T02:01:38.040Z,99427.31
2023-02-19T02:04:08.270Z,99436.38
2023-02-19T02:06:43.528Z,99433.00
2023-02-19T02:09:30.478Z,99432.34
2023-02-19T02:11:57.879Z,99418.19
2023-02-19T02:14:30.308Z,99422.19
2023-02-19T02:17:03.583Z,99429.97
2023-02-19T02:19:49.568Z,99431.03
2023-02-19T02:22:24.464Z,99431.28
2023-02-19T02:24:54.938Z,99432.88
2023-02-19T02:27:50.065Z,99447.38
2023-02-19T02:30:39.627Z,99446.13
2023-02-19T02:33:28.154Z,99429.28
2023-02-19T02:36:24.708Z,99426.25
2023-02-19T02:38:54.274Z,99412.84
2023-02-19T02:41:24.341Z,99419.69
2023-02-19T02:43:52.297Z,99402.94
2023-02-19T02:46:24.470Z,99409.53
2023-02-19T02:48:57.592Z,99408.09
2023-02-19T02:51:36.410Z,99403.63
2023-02-19T02:54:35.241Z,99402.44
2023-02-19T02:57:09.715Z,99402.88
2023-02-19T02:59:45.972Z,99411.66
2023-02-19T03:02:19.086Z,99415.34
2023-02-19T03:05:18.091Z,99421.66
2023-02-19T03:08:07.627Z,99416.81
2023-02-19T03:10:46.061Z,99429.56
2023-02-19T03:13:47.683Z,99419.47
2023-02-19T03:16:42.989Z,99414.41
2023-02-19T03:19:20.077Z,99418.16
2023-02-19T03:21:55.013Z,99413.06
2023-02-19T03:24:45.944Z,99425.38
2023-02-19T03:27:15.808Z,99427.28
2023-02-19T03:29:48.942Z,99426.47
2023-02-19T03:32:25.620Z,99433.75
2023-02-19T03:34:59.306Z,99422.16
2023-02-19T03:37:38.723Z,99429.38
2023-02-19T03:40:07.573Z,99434.00
2023-02-19T03:42:55.007Z,99433.88
2023-02-19T03:45:44.199Z,99439.66
2023-02-19T03:48:29.645Z,99434.84
2023-02-19T03:51:39.159Z,99417.88
2023-02-19T03:54:37.475Z,99423.34
2023-02-19T03:57:19.623Z,99412.72
2023-02-19T03:59:55.855Z,99419.47
2023-02-19T04:02:38.399Z,99419.25
2023-02-19T04:05:14.067Z,99432.75
2023-02-19T04:07:47.099Z,99427.47
2023-02-19T04:10:18.934Z,99418.03
2023-02-19T04:12:56.739Z,99429.25
2023-02-19T04:15:30.799Z,99411.97
2023-02-19T04:18:07.501Z,99427.22
2023-02-19T04:20:43.780Z,99425.31
2023-02-19T04:23:13.013Z,99420.44
2023-02-19T04:25:44.520Z,99414.66
2023-02-19T04:28:14.639Z,99425.03
2023-02-19T04:30:42.690Z,99413.91
2023-02-19T04:33:10.377Z,99411.75
2023-02-19T04:35:37.588Z,99411.00
2023-02-19T04:38:05.151Z,99407.28
2023-02-19T04:40:32.491Z,99408.59
2023-02-19T04:43:00.032Z,99411.91
2023-02-19T04:45:27.301Z,99403.28
2023-02-19T04:47:54.944Z,99415.84
2023-02-19T04:50:23.281Z,99395.31
2023-02-19T04:52:51.147Z,99408.50
2023-02-19T04:55:18.460Z,99409.22
2023-02-19T04:57:45.979Z,99411.53
2023-02-19T05:00:13.823Z,99405.72
2023-02-19T05:02:41.557Z,99419.22
2023-02-19T05:05:08.824Z,99406.22
2023-02-19T05:07:36.493Z,99416.31
2023-02-19T05:10:04.234Z,99417.31
2023-02-19T05:12:31.953Z,99406.22
2023-02-19T05:14:59.204Z,99414.53
2023-02-19T05:17:26.783Z,99410.28
2023-02-19T05:19:53.987Z,99416.84
2023-02-19T05:22:21.608Z,99421.16
2023-02-19T05:24:48.849Z,99421.06
2023-02-19T05:27:16.387Z,99415.47
2023-02-19T05:29:43.599Z,99418.13
2023-02-19T05:32:11.178Z,99421.44
2023-02-19T05:34:38.503Z,99424.03
2023-02-19T05:37:06.043Z,99430.09
2023-02-19T05:39:33.292Z,99433.72
2023-02-19T05:42:00.799Z,99425.53
2023-02-19T05:44:28.033Z,99423.09
2023-02-19T05:46:55.617Z,99422.38
2023-02-19T05:49:23.086Z,99430.25
2023-02-19T05:51:51.320Z,99423.84
2023-02-19T05:54:18.534Z,99430.00
2023-02-19T05:56:46.069Z,99438.09
2023-02-19T05:59:19.372Z,99430.22
2023-02-19T06:01:47.965Z,99439.31
2023-02-19T06:04:15.890Z,99428.91
2023-02-19T06:06:43.710Z,99437.38
2023-02-19T06:09:11.173Z,99436.66
2023-02-19T06:11:39.634Z,99429.78
2023-02-19T06:14:07.293Z,99445.56
2023-02-19T06:16:34.819Z,99453.09
2023-02-19T06:19:04.041Z,99443.66
2023-02-19T06:21:31.763Z,99458.66
2023-02-19T06:23:59.185Z,99457.34
2023-02-19T06:26:26.809Z,99461.53
2023-02-19T06:28:54.789Z,99463.59
2023-02-19T06:31:23.221Z,99478.47
2023-02-19T06:33:53.321Z,99479.19
2023-02-19T06:36:22.061Z,99473.06
2023-02-19T06:38:49.874Z,99485.59
2023-02-19T06:41:17.816Z,99484.56
2023-02-19T06:43:46.620Z,99489.94
2023-02-19T06:46:14.665Z,99490.78
2023-02-19T06:48:43.859Z,99486.38
2023-02-19T06:51:18.855Z,99492.19
2023-02-19T06:53:46.671Z,99490.13
2023-02-19T06:56:34.399Z,99494.16
2023-02-19T06:59:04.179Z,99504.06
2023-02-19T07:01:33.926Z,99510.09
2023-02-19T07:04:01.885Z,99517.97
2023-02-19T07:06:29.969Z,99516.59
2023-02-19T07:08:58.904Z,99514.25
2023-02-19T07:11:29.725Z,99519.41
2023-02-19T07:14:01.643Z,99520.88
2023-02-19T07:16:30.172Z,99527.66
2023-02-19T07:18:58.819Z,99540.56
2023-02-19T07:21:27.606Z,99531.47
2023-02-19T07:23:55.233Z,99537.75
2023-02-19T07:26:23.432Z,99527.34
2023-02-19T07:28:51.322Z,99540.59
2023-02-19T07:31:22.513Z,99530.47
2023-02-19T07:33:50.332Z,99530.50
2023-02-19T07:36:19.019Z,99546.31
2023-02-19T07:38:46.694Z,99545.53
2023-02-19T07:41:14.442Z,99547.19
2023-02-19T07:43:41.795Z,99545.50
2023-02-19T07:46:12.223Z,99552.00
2023-02-19T07:48:41.186Z,99555.59
2023-02-19T07:51:12.801Z,99566.34
2023-02-19T07:53:40.266Z,99564.16
2023-02-19T07:56:08.796Z,99559.84
2023-02-19T07:58:36.048Z,99574.00
2023-02-19T08:01:40.186Z,99570.63
2023-02-19T08:04:07.618Z,99568.63
2023-02-19T08:06:35.153Z,99572.69
2023-02-19T08:09:03.563Z,99578.56
2023-02-19T08:11:49.618Z,99579.81
2023-02-19T08:14:16.895Z,99587.28
2023-02-19T08:16:52.134Z,99594.56
2023-02-19T08:19:19.992Z,99598.72
2023-02-19T08:21:47.559Z,99598.56
2023-02-19T08:24:14.809Z,99606.16
2023-02-19T08:26:42.425Z,99607.66
2023-02-19T08:29:09.808Z,99619.19
2023-02-19T08:31:38.067Z,99618.25
2023-02-19T08:34:05.630Z,99615.75
2023-02-19T08:36:33.227Z,99605.19
2023-02-19T08:39:00.525Z,99620.81
2023-02-19T08:41:28.292Z,99635.84
2023-02-19T08:43:55.625Z,99627.09
2023-02-19T08:46:23.316Z,99634.09
2023-02-19T08:48:50.601Z,99632.50
2023-02-19T08:51:18.175Z,99631.78
2023-02-19T08:53:46.045Z,99643.47
2023-02-19T08:56:16.384Z,99638.22
2023-02-19T08:58:43.989Z,99649.28
2023-02-19T09:01:14.875Z,99645.16
2023-02-19T09:03:42.796Z,99649.59
2023-02-19T09:06:15.247Z,99644.00
2023-02-19T09:08:42.478Z,99652.56
2023-02-19T09:11:10.453Z,99664.56
2023-02-19T09:13:37.926Z,99671.22
2023-02-19T09:16:06.119Z,99668.31
2023-02-19T09:18:33.824Z,99671.03
2023-02-19T09:21:04.713Z,99673.50
2023-02-19T09:23:36.638Z,99671.75
2023-02-19T09:26:07.071Z,99668.75
2023-02-19T09:28:35.075Z,99671.75
2023-02-19T09:31:07.193Z,99671.41
2023-02-19T09:33:34.408Z,99669.19
2023-02-19T09:36:02.640Z,99671.31
2023-02-19T09:38:31.077Z,99674.28
2023-02-19T09:41:05.970Z,99670.09
2023-02-19T09:43:34.426Z,99672.06
2023-02-19T09:46:22.640Z,99677.19
2023-02-19T09:48:50.314Z,99671.84
2023-02-19T09:51:18.062Z,99668.47
2023-02-19T09:53:49.565Z,99684.31
2023-02-19T09:56:17.794Z,99681.00
2023-02-19T09:58:54.462Z,99677.75
2023-02-19T10:01:24.691Z,99702.31
2023-02-19T10:03:51.978Z,99689.94
2023-02-19T10:06:26.740Z,99689.59
2023-02-19T10:09:22.202Z,99697.31
2023-02-19T10:11:50.257Z,99690.31
2023-02-19T10:14:44.915Z,99698.66
2023-02-19T10:17:24.770Z,99701.50
2023-02-19T10:19:53.888Z,99686.38
2023-02-19T10:22:21.458Z,99696.19
2023-02-19T10:24:52.968Z,99688.09
2023-02-19T10:27:20.596Z,99702.19
2023-02-19T10:29:50.370Z,99699.44
2023-02-19T10:32:23.930Z,99713.25
2023-02-19T10:35:16.281Z,99710.47
2023-02-19T10:37:47.037Z,99702.69
2023-02-19T10:40:23.479Z,99722.97
2023-02-19T10:42:55.653Z,99712.34
2023-02-19T10:45:24.467Z,99713.97
2023-02-19T10:47:53.360Z,99719.34
2023-02-19T10:50:32.177Z,99719.66
2023-02-19T10:53:02.084Z,99718.78
2023-02-19T10:55:30.859Z,99730.97
2023-02-19T10:57:58.848Z,99702.50
2023-02-19T11:00:30.614Z,99722.03
2023-02-19T11:03:21.585Z,99724.84
2023-02-19T11:06:00.556Z,99737.72
2023-02-19T11:08:29.285Z,99717.06
2023-02-19T11:10:56.808Z,99723.44
2023-02-19T11:13:32.303Z,99728.91
2023-02-19T11:16:00.537Z,99735.69
2023-02-19T11:18:36.257Z,99758.41
2023-02-19T11:21:07.546Z,99757.06
2023-02-19T11:23:43.855Z,99751.06
2023-02-19T11:26:21.082Z,99762.31
2023-02-19T11:29:00.564Z,99752.72
2023-02-19T11:31:36.136Z,99751.31
2023-02-19T11:34:30.023Z,99765.22
2023-02-19T11:37:13.575Z,99772.34
2023-02-19T11:39:43.773Z,99766.94
2023-02-19T11:42:53.824Z,99767.34
2023-02-19T11:45:43.236Z,99748.38
2023-02-19T11:48:31.515Z,99757.00
2023-02-19T11:51:17.225Z,99763.63
2023-02-19T11:54:07.253Z,99766.09
2023-02-19T11:56:39.211Z,99771.94
2023-02-19T11:59:34.399Z,99771.13
2023-02-19T12:02:26.232Z,99776.19
2023-02-19T12:05:23.715Z,99759.84
2023-02-19T12:08:03.264Z,99764.75
2023-02-19T12:10:52.061Z,99775.91
2023-02-19T12:13:29.131Z,99763.22
2023-02-19T12:16:17.470Z,99775.34
2023-02-19T12:18:59.575Z,99776.75
2023-02-19T12:21:26.895Z,99795.91
2023-02-19T12:24:16.012Z,99795.66
2023-02-19T12:27:06.313Z,99787.19
2023-02-19T12:29:49.028Z,99798.88
2023-02-19T12:32:16.310Z,99812.97
2023-02-19T12:35:08.419Z,99801.78
2023-02-19T12:37:38.461Z,99815.88
2023-02-19T12:40:15.151Z,99818.84
2023-02-19T12:42:54.546Z,99829.94
2023-02-19T12:45:33.765Z,99829.84
2023-02-19T12:48:43.098Z,99829.22
2023-02-19T12:51:23.497Z,99825.72
2023-02-19T12:54:07.164Z,99842.00
2023-02-19T12:56:40.834Z,99837.66
2023-02-19T12:59:23.796Z,99820.72
2023-02-19T13:01:54.518Z,99826.63
2023-02-19T13:04:30.571Z,99833.81
2023-02-19T13:07:05.557Z,99831.06
2023-02-19T13:09:46.093Z,99830.91
2023-02-19T13:12:31.257Z,99822.22
2023-02-19T13:15:03.664Z,99833.88
2023-02-19T13:17:49.453Z,99842.88
2023-02-19T13:20:29.826Z,99848.63
2023-02-19T13:23:50.577Z,99842.44
2023-02-19T13:26:42.789Z,99852.13
2023-02-19T13:29:20.204Z,99849.19
2023-02-19T13:32:12.391Z,99855.00
2023-02-19T13:34:58.816Z,99864.44
2023-02-19T13:37:26.784Z,99850.16
2023-02-19T13:39:55.759Z,99861.22
2023-02-19T13:42:36.594Z,99862.34
2023-02-19T13:45:06.453Z,99871.03
2023-02-19T13:47:56.292Z,99885.56
2023-02-19T13:50:26.802Z,99891.44
2023-02-19T13:52:56.247Z,99878.81
2023-02-19T13:55:49.957Z,99901.47
2023-02-19T13:58:36.333Z,99886.94
2023-02-19T14:01:05.660Z,99891.44
2023-02-19T14:03:38.605Z,99887.56
2023-02-19T14:06:08.442Z,99891.91
2023-02-19T14:08:58.142Z,99901.47
2023-02-19T14:11:48.224Z,99895.53
2023-02-19T14:14:39.785Z,99900.63
2023-02-19T14:17:10.192Z,99903.31
2023-02-19T14:19:43.187Z,99910.06
2023-02-19T14:22:51.467Z,99927.00
2023-02-19T14:25:24.600Z,99928.22
2023-02-19T14:27:53.730Z,99933.06
2023-02-19T14:30:23.895Z,99920.97
2023-02-19T14:33:02.867Z,99903.47
2023-02-19T14:35:42.861Z,99912.66
2023-02-19T14:38:21.484Z,99927.63
2023-02-19T14:40:50.300Z,99932.97
2023-02-19T14:43:21.357Z,99928.53
2023-02-19T14:45:53.640Z,99924.22
2023-02-19T14:48:26.813Z,99937.66
2023-02-19T14:50:59.202Z,99948.25
2023-02-19T14:53:28.996Z,99939.91
2023-02-19T14:55:58.985Z,99936.91
2023-02-19T14:58:33.627Z,99940.41
2023-02-19T15:01:00.980Z,99952.00
2023-02-19T15:03:33.747Z,99956.53
2023-02-19T15:06:27.544Z,99964.75
2023-02-19T15:09:00.261Z,99975.72
2023-02-19T15:11:32.042Z,99972.53
2023-02-19T15:14:06.106Z,99965.31
2023-02-19T15:16:35.880Z,99988.06
2023-02-19T15:19:08.205Z,99981.88
2023-02-19T15:21:37.993Z,99979.13
2023-02-19T15:24:07.259Z,99974.47
2023-02-19T15:26:37.767Z,99982.41
2023-02-19T15:29:11.623Z,99994.63
2023-02-19T15:31:53.014Z,99997.41
2023-02-19T15:34:26.308Z,100001.34
2023-02-19T15:37:02.476Z,99998.88
2023-02-19T15:39:48.810Z,99992.50
2023-02-19T15:42:23.404Z,99993.78
2023-02-19T15:45:15.649Z,100015.03
2023-02-19T15:47:51.872Z,100010.47
2023-02-19T15:50:35.956Z,100012.50
2023-02-19T15:53:07.187Z,100019.63
2023-02-19T15:56:06.386Z,100020.66
2023-02-19T15:58:46.409Z,100005.56
2023-02-19T16:01:13.986Z,100015.56
2023-02-19T16:03:42.166Z,100019.50
2023-02-19T16:06:14.904Z,100016.38
2023-02-19T16:08:47.070Z,100027.63
2023-02-19T16:11:23.616Z,100025.81
2023-02-19T16:13:52.007Z,100030.25
2023-02-19T16:16:31.499Z,100027.53
2023-02-19T16:18:59.008Z,100035.44
2023-02-19T16:21:28.227Z,100050.63
2023-02-19T16:24:05.294Z,100049.97
2023-02-19T16:26:43.885Z,100060.53
2023-02-19T16:29:50.484Z,100073.63
2023-02-19T16:32:18.458Z,100062.00
2023-02-19T16:34:47.864Z,100080.69
2023-02-19T16:37:34.154Z,100081.84
2023-02-19T16:40:07.334Z,100091.69
2023-02-19T16:43:00.709Z,100077.31
2023-02-19T16:45:27.981Z,100077.00
2023-02-19T16:47:55.796Z,100076.53
2023-02-19T16:50:24.981Z,100071.81
2023-02-19T16:52:57.937Z,100079.38
2023-02-19T16:55:26.175Z,100080.53
2023-02-19T16:57:53.907Z,100080.53
2023-02-19T17:00:23.754Z,100080.94
2023-02-19T17:02:54.532Z,100077.22
2023-02-19T17:05:23.636Z,100070.50
2023-02-19T17:07:51.596Z,100068.03
2023-02-19T17:10:24.811Z,100075.72
2023-02-19T17:12:55.928Z,100088.91
2023-02-19T17:15:23.352Z,100074.41
2023-02-19T17:17:50.910Z,100079.59
2023-02-19T17:20:27.590Z,100073.63
2023-02-19T17:22:56.109Z,100067.69
2023-02-19T17:25:23.793Z,100075.06
2023-02-19T17:27:51.300Z,100072.78
2023-02-19T17:30:38.866Z,100078.09
2023-02-19T17:33:07.391Z,100074.13
2023-02-19T17:35:34.743Z,100067.22
2023-02-19T17:38:09.507Z,100069.84
2023-02-19T17:40:37.437Z,100077.25
2023-02-19T17:43:06.069Z,100074.78
2023-02-19T17:45:33.880Z,100076.84
2023-02-19T17:48:01.463Z,100061.03
2023-02-19T17:50:31.825Z,100086.53
2023-02-19T17:52:59.706Z,100062.00
2023-02-19T17:55:28.998Z,100062.75
2023-02-19T17:57:56.755Z,100068.25
2023-02-19T18:00:27.455Z,100069.22
2023-02-19T18:02:55.662Z,100088.88
2023-02-19T18:05:23.641Z,100094.19
2023-02-19T18:07:51.446Z,100084.16
2023-02-19T18:10:21.137Z,100086.88
2023-02-19T18:12:49.301Z,100085.69
2023-02-19T18:15:22.448Z,100086.13
2023-02-19T18:17:50.230Z,100088.56
2023-02-19T18:20:21.961Z,100089.03
2023-02-19T18:22:49.744Z,100073.44
2023-02-19T18:25:18.301Z,100088.84
2023-02-19T18:27:46.276Z,100085.78
2023-02-19T18:30:18.452Z,100091.13
2023-02-19T18:32:49.908Z,100084.88
2023-02-19T18:35:19.458Z,100087.53
2023-02-19T18:37:54.377Z,100069.31
2023-02-19T18:40:25.403Z,100074.63
2023-02-19T18:42:53.341Z,100084.47
2023-02-19T18:45:21.054Z,100083.97
2023-02-19T18:47:50.556Z,100072.34
2023-02-19T18:50:18.992Z,100057.19
2023-02-19T18:52:47.145Z,100075.94
2023-02-19T18:55:14.525Z,100085.50
2023-02-19T18:57:42.243Z,100071.22
2023-02-19T19:00:10.391Z,100074.47
2023-02-19T19:02:48.885Z,100081.38
2023-02-19T19:05:21.427Z,100065.88
2023-02-19T19:07:54.134Z,100062.28
2023-02-19T19:10:22.338Z,100076.50
2023-02-19T19:12:50.254Z,100072.81
2023-02-19T19:15:18.637Z,100081.63
2023-02-19T19:17:48.300Z,100081.25
2023-02-19T19:20:23.531Z,100084.22
2023-02-19T19:22:54.011Z,100074.19
2023-02-19T19:25:22.914Z,100067.53
2023-02-19T19:27:54.467Z,100073.03
2023-02-19T19:30:21.852Z,100072.16
2023-02-19T19:32:51.838Z,100064.25
2023-02-19T19:35:21.012Z,100056.81
2023-02-19T19:37:49.121Z,100046.28
2023-02-19T19:40:17.645Z,100050.28
2023-02-19T19:42:45.602Z,100058.25
2023-02-19T19:45:14.322Z,100067.78
2023-02-19T19:47:41.915Z,100060.44
2023-02-19T19:50:10.198Z,100071.50
2023-02-19T19:52:37.715Z,100060.38
2023-02-19T19:55:06.244Z,100068.47
2023-02-19T19:57:33.865Z,100061.75
2023-02-19T20:00:01.354Z,100064.69
2023-02-19T20:02:29.062Z,100058.84
2023-02-19T20:04:56.378Z,100061.31
2023-02-19T20:07:24.050Z,100065.44
2023-02-19T20:09:51.364Z,100056.41
2023-02-19T20:12:18.922Z,100051.84
2023-02-19T20:14:46.820Z,100053.44
2023-02-19T20:17:14.557Z,100040.69
2023-02-19T20:19:42.020Z,100042.41
2023-02-19T20:22:09.592Z,100046.97
2023-02-19T20:24:36.895Z,100033.13
2023-02-19T20:27:04.923Z,100024.28
2023-02-19T20:29:34.469Z,100029.72
2023-02-19T20:32:03.734Z,100022.38
2023-02-19T20:34:31.766Z,100022.81
2023-02-19T20:36:59.650Z,100014.28
2023-02-19T20:39:29.351Z,100004.09
2023-02-19T20:41:58.806Z,100014.72
2023-02-19T20:44:28.508Z,99999.00
2023-02-19T20:46:57.308Z,100009.59
2023-02-19T20:49:29.072Z,100008.00
2023-02-19T20:51:59.754Z,99987.16
2023-02-19T20:54:32.559Z,99981.19
2023-02-19T20:57:02.362Z,99991.09
2023-02-19T20:59:34.952Z,100016.78
2023-02-19T21:02:04.258Z,100017.56
2023-02-19T21:04:32.284Z,100001.28
2023-02-19T21:06:59.555Z,100013.19
2023-02-19T21:09:27.056Z,99985.94
2023-02-19T21:11:54.338Z,100010.41
2023-02-19T21:14:21.886Z,100022.81
2023-02-19T21:16:49.205Z,100011.63
2023-02-19T21:19:17.081Z,99998.06
2023-02-19T21:21:44.370Z,100011.53
2023-02-19T21:24:14.149Z,100007.47
2023-02-19T21:26:42.573Z,100001.72
2023-02-19T21:29:14.523Z,100009.31
2023-02-19T21:31:44.710Z,100006.94
2023-02-19T21:34:14.861Z,100015.34
2023-02-19T21:36:42.811Z,100016.97
2023-02-19T21:39:13.540Z,100010.91
2023-02-19T21:41:40.854Z,100018.44
2023-02-19T21:44:08.646Z,100013.63
2023-02-19T21:46:35.984Z,100024.28
2023-02-19T21:49:04.524Z,100030.13
2023-02-19T21:51:38.067Z,100033.72
2023-02-19T21:54:07.293Z,100008.88
2023-02-19T21:56:36.637Z,100024.25
2023-02-19T21:59:04.494Z,100026.19
2023-02-19T22:01:34.616Z,100020.09
2023-02-19T22:04:02.389Z,100035.31
2023-02-19T22:06:31.134Z,100028.69
2023-02-19T22:08:59.277Z,100008.44
2023-02-19T22:11:26.883Z,100023.13
2023-02-19T22:13:54.584Z,100029.38
2023-02-19T22:16:22.312Z,100029.53
2023-02-19T22:18:55.468Z,100022.19
2023-02-19T22:21:24.962Z,100019.63
2023-02-19T22:23:54.405Z,100028.69
2023-02-19T22:26:27.910Z,100002.72
2023-02-19T22:28:56.407Z,100030.56
2023-02-19T22:31:25.118Z,100028.22
2023-02-19T22:33:53.277Z,100034.28
2023-02-19T22:36:23.560Z,100028.91
2023-02-19T22:38:51.308Z,100030.38
2023-02-19T22:41:19.938Z,100045.50
2023-02-19T22:43:47.940Z,100038.72
2023-02-19T22:46:19.553Z,100051.34
2023-02-19T22:48:47.363Z,100031.16
2023-02-19T22:51:17.583Z,100044.56
2023-02-19T22:53:55.849Z,100035.97
2023-02-19T22:56:25.345Z,100041.19
2023-02-19T22:58:54.279Z,100038.16
2023-02-19T23:01:22.175Z,100053.59
2023-02-19T23:03:55.357Z,100042.72
2023-02-19T23:06:32.113Z,100044.53
2023-02-19T23:09:04.242Z,100047.59
2023-02-19T23:11:34.274Z,100051.13
2023-02-19T23:14:02.472Z,100043.28
2023-02-19T23:16:30.364Z,100054.75
2023-02-19T23:18:57.952Z,100058.28
2023-02-19T23:21:25.269Z,100053.47
2023-02-19T23:23:52.788Z,100046.81
2023-02-19T23:26:20.178Z,100052.72
2023-02-19T23:28:47.841Z,100049.66
2023-02-19T23:31:15.926Z,100034.84
2023-02-19T23:33:45.221Z,100041.84
2023-02-19T23:36:13.783Z,100041.84
2023-02-19T23:38:47.329Z,100051.50
2023-02-19T23:41:16.814Z,100044.63
2023-02-19T23:43:44.839Z,100053.72
2023-02-19T23:46:17.612Z,100058.09
2023-02-19T23:48:46.340Z,100052.72
2023-02-19T23:51:14.068Z,100044.84
2023-02-19T23:53:41.765Z,100043.38
2023-02-19T23:56:09.100Z,100049.38
2023-02-19T23:58:36.802Z,100039.13
